CES1007 ZYCC-ZSOF
Flight info
| Callsign | CES1007 |
|---|---|
| Flight time | 2h 13m |
| Altitude | 34100 |
| Route | LEMOT A588 UDETI W202 DOBGA V68 TEKAM DCT FD W174 XDX DCT LAGAL W178 OF W543 AKSIG/K0904S1070 W543 MABOS/K0904S1040 W73 MADUK |
| Aircraft | A320/H-SADE1E2E3GHIJ3J5M1P2RWXY/LB2D1 |
Departure
| Time | 2026-04-24 03:00 |
|---|---|
| Airport | Changchun Longjia International Airport (ZYCC) |
Arrival
| Time | 2026-04-24 05:13 |
|---|---|
| Airport | Hefei Xinqiao International Airport (ZSOF) |
| Time | Latitude | Longitude | Altitude | Speed | Heading |
|---|---|---|---|---|---|
| 2026-04-24 02:43 | 43.99824 | 125.69656 | 713 ft | 0 kts | 139° |
| 2026-04-24 02:52 | 43.99832 | 125.69647 | 713 ft | 2 kts | 139° |
| 2026-04-24 02:52 | 43.99843 | 125.69634 | 713 ft | 2 kts | 139° |
| 2026-04-24 02:52 | 43.99855 | 125.69620 | 713 ft | 2 kts | 139° |
| 2026-04-24 02:53 | 43.99862 | 125.69611 | 712 ft | 2 kts | 139° |
| 2026-04-24 02:53 | 43.99869 | 125.69594 | 713 ft | 2 kts | 99° |
| 2026-04-24 02:53 | 43.99868 | 125.69573 | 713 ft | 2 kts | 66° |
| 2026-04-24 02:53 | 43.99865 | 125.69563 | 713 ft | 1 kts | 49° |
| 2026-04-24 02:54 | 43.99860 | 125.69556 | 713 ft | 0 kts | 48° |
| 2026-04-24 02:54 | 43.99860 | 125.69557 | 712 ft | 0 kts | 48° |
| 2026-04-24 02:55 | 43.99861 | 125.69558 | 712 ft | 0 kts | 48° |
| 2026-04-24 02:55 | 43.99873 | 125.69578 | 712 ft | 4 kts | 50° |
| 2026-04-24 02:56 | 43.99902 | 125.69625 | 712 ft | 8 kts | 51° |
| 2026-04-24 02:56 | 43.99945 | 125.69696 | 712 ft | 11 kts | 49° |
| 2026-04-24 02:56 | 43.99998 | 125.69782 | 712 ft | 7 kts | 50° |
| 2026-04-24 02:56 | 44.00051 | 125.69782 | 712 ft | 10 kts | 336° |
| 2026-04-24 02:57 | 44.00115 | 125.69821 | 712 ft | 12 kts | 44° |
| 2026-04-24 02:57 | 44.00180 | 125.69922 | 712 ft | 15 kts | 50° |
| 2026-04-24 02:57 | 44.00253 | 125.70040 | 712 ft | 17 kts | 49° |
| 2026-04-24 02:57 | 44.00335 | 125.70173 | 712 ft | 15 kts | 49° |
| 2026-04-24 02:58 | 44.00380 | 125.70223 | 712 ft | 6 kts | 0° |
| 2026-04-24 02:58 | 44.00431 | 125.70179 | 712 ft | 10 kts | 320° |
| 2026-04-24 02:58 | 44.00497 | 125.70102 | 712 ft | 14 kts | 320° |
| 2026-04-24 02:58 | 44.00542 | 125.70012 | 712 ft | 11 kts | 268° |
| 2026-04-24 02:59 | 44.00520 | 125.69951 | 713 ft | 0 kts | 229° |
| 2026-04-24 02:59 | 44.00519 | 125.69949 | 712 ft | 1 kts | 229° |
| 2026-04-24 02:59 | 44.00359 | 125.69692 | 713 ft | 70 kts | 229° |
| 2026-04-24 03:00 | 43.99902 | 125.68958 | 713 ft | 130 kts | 230° |
| 2026-04-24 03:00 | 43.99195 | 125.67820 | 784 ft | 172 kts | 226° |
| 2026-04-24 03:00 | 43.98440 | 125.66527 | 1323 ft | 175 kts | 226° |
| 2026-04-24 03:00 | 43.97656 | 125.65251 | 2047 ft | 172 kts | 224° |
| 2026-04-24 03:01 | 43.96891 | 125.64050 | 2740 ft | 168 kts | 225° |
| 2026-04-24 03:01 | 43.96079 | 125.62781 | 3065 ft | 183 kts | 225° |
| 2026-04-24 03:01 | 43.95202 | 125.61405 | 3368 ft | 200 kts | 226° |
| 2026-04-24 03:01 | 43.94242 | 125.59885 | 3627 ft | 222 kts | 226° |
| 2026-04-24 03:02 | 43.93496 | 125.58695 | 3902 ft | 234 kts | 227° |
| 2026-04-24 03:02 | 43.92325 | 125.56821 | 4380 ft | 250 kts | 227° |
| 2026-04-24 03:02 | 43.91169 | 125.54971 | 5095 ft | 254 kts | 228° |
| 2026-04-24 03:02 | 43.90018 | 125.53127 | 5864 ft | 255 kts | 229° |
| 2026-04-24 03:03 | 43.88852 | 125.51263 | 6624 ft | 258 kts | 229° |
| 2026-04-24 03:03 | 43.87695 | 125.49412 | 7377 ft | 260 kts | 230° |
| 2026-04-24 03:03 | 43.86509 | 125.47516 | 8126 ft | 262 kts | 230° |
| 2026-04-24 03:03 | 43.85312 | 125.45605 | 8856 ft | 266 kts | 230° |
| 2026-04-24 03:04 | 43.84098 | 125.43669 | 9582 ft | 269 kts | 231° |
| 2026-04-24 03:04 | 43.82873 | 125.41717 | 10302 ft | 273 kts | 231° |
| 2026-04-24 03:04 | 43.81614 | 125.39707 | 10744 ft | 287 kts | 231° |
| 2026-04-24 03:04 | 43.80051 | 125.37830 | 11043 ft | 308 kts | 213° |
| 2026-04-24 03:05 | 43.77978 | 125.36808 | 11325 ft | 331 kts | 192° |
| 2026-04-24 03:05 | 43.75611 | 125.36948 | 11594 ft | 355 kts | 169° |
| 2026-04-24 03:05 | 43.73252 | 125.38180 | 11876 ft | 373 kts | 161° |
| 2026-04-24 03:05 | 43.70797 | 125.39593 | 12135 ft | 387 kts | 161° |
| 2026-04-24 03:06 | 43.68269 | 125.41032 | 12374 ft | 400 kts | 161° |
| 2026-04-24 03:06 | 43.65657 | 125.42500 | 12613 ft | 411 kts | 161° |
| 2026-04-24 03:06 | 43.63015 | 125.43980 | 12681 ft | 413 kts | 161° |
| 2026-04-24 03:06 | 43.60335 | 125.45478 | 12683 ft | 412 kts | 161° |
| 2026-04-24 03:07 | 43.57666 | 125.46973 | 12857 ft | 418 kts | 161° |
| 2026-04-24 03:07 | 43.54995 | 125.48476 | 13455 ft | 419 kts | 161° |
| 2026-04-24 03:07 | 43.52307 | 125.49989 | 14022 ft | 421 kts | 161° |
| 2026-04-24 03:07 | 43.49575 | 125.51524 | 14489 ft | 425 kts | 161° |
| 2026-04-24 03:08 | 43.46761 | 125.52651 | 14883 ft | 424 kts | 176° |
| 2026-04-24 03:08 | 43.41123 | 125.51098 | 15846 ft | 415 kts | 210° |
| 2026-04-24 03:08 | 43.38578 | 125.49266 | 16330 ft | 417 kts | 211° |
| 2026-04-24 03:09 | 43.35988 | 125.47386 | 16746 ft | 421 kts | 211° |
| 2026-04-24 03:09 | 43.33389 | 125.45516 | 17181 ft | 424 kts | 211° |
| 2026-04-24 03:09 | 43.30792 | 125.43665 | 17602 ft | 426 kts | 211° |
| 2026-04-24 03:09 | 43.28126 | 125.41772 | 18023 ft | 429 kts | 211° |
| 2026-04-24 03:10 | 43.25502 | 125.39917 | 18423 ft | 431 kts | 211° |
| 2026-04-24 03:10 | 43.22837 | 125.38040 | 18800 ft | 433 kts | 211° |
| 2026-04-24 03:10 | 43.20145 | 125.36148 | 19160 ft | 435 kts | 211° |
| 2026-04-24 03:10 | 43.17464 | 125.34267 | 19534 ft | 437 kts | 210° |
| 2026-04-24 03:11 | 43.14747 | 125.32362 | 19899 ft | 439 kts | 210° |
| 2026-04-24 03:11 | 43.12013 | 125.30448 | 20253 ft | 441 kts | 210° |
| 2026-04-24 03:11 | 43.09292 | 125.28545 | 20596 ft | 443 kts | 210° |
| 2026-04-24 03:11 | 43.06529 | 125.26614 | 20926 ft | 445 kts | 211° |
| 2026-04-24 03:12 | 43.03768 | 125.24684 | 21253 ft | 447 kts | 210° |
| 2026-04-24 03:12 | 43.01024 | 125.22771 | 21575 ft | 448 kts | 211° |
| 2026-04-24 03:12 | 42.98256 | 125.20842 | 21898 ft | 449 kts | 211° |
| 2026-04-24 03:12 | 42.95366 | 125.19125 | 22165 ft | 455 kts | 202° |
| 2026-04-24 03:13 | 42.92267 | 125.18094 | 22436 ft | 462 kts | 193° |
| 2026-04-24 03:13 | 42.89050 | 125.17787 | 22687 ft | 469 kts | 183° |
| 2026-04-24 03:13 | 42.85782 | 125.17897 | 22933 ft | 469 kts | 186° |
| 2026-04-24 03:13 | 42.82558 | 125.17385 | 23141 ft | 465 kts | 196° |
| 2026-04-24 03:14 | 42.79500 | 125.16145 | 23378 ft | 460 kts | 205° |
| 2026-04-24 03:14 | 42.76624 | 125.14305 | 23722 ft | 456 kts | 211° |
| 2026-04-24 03:14 | 42.73799 | 125.12334 | 24069 ft | 454 kts | 211° |
| 2026-04-24 03:14 | 42.71025 | 125.10376 | 24384 ft | 454 kts | 212° |
| 2026-04-24 03:15 | 42.68224 | 125.08397 | 24705 ft | 454 kts | 212° |
| 2026-04-24 03:15 | 42.65416 | 125.06419 | 25017 ft | 453 kts | 212° |
| 2026-04-24 03:15 | 42.62637 | 125.04469 | 25347 ft | 452 kts | 212° |
| 2026-04-24 03:15 | 42.59858 | 125.02523 | 25676 ft | 451 kts | 212° |
| 2026-04-24 03:16 | 42.57059 | 125.00568 | 26006 ft | 450 kts | 212° |
| 2026-04-24 03:16 | 42.54291 | 124.98639 | 26351 ft | 448 kts | 212° |
| 2026-04-24 03:16 | 42.51512 | 124.96703 | 26698 ft | 447 kts | 212° |
| 2026-04-24 03:16 | 42.48781 | 124.94802 | 27036 ft | 445 kts | 212° |
| 2026-04-24 03:17 | 42.46105 | 124.92942 | 27341 ft | 444 kts | 212° |
| 2026-04-24 03:17 | 42.43361 | 124.91037 | 27646 ft | 443 kts | 212° |
| 2026-04-24 03:17 | 42.40619 | 124.89133 | 27974 ft | 442 kts | 212° |
| 2026-04-24 03:17 | 42.37923 | 124.87266 | 28281 ft | 441 kts | 212° |
| 2026-04-24 03:18 | 42.35188 | 124.85373 | 28600 ft | 440 kts | 212° |
| 2026-04-24 03:18 | 42.32480 | 124.83500 | 28908 ft | 439 kts | 212° |
| 2026-04-24 03:18 | 42.29747 | 124.81612 | 29209 ft | 437 kts | 213° |
| 2026-04-24 03:18 | 42.27072 | 124.79766 | 29502 ft | 436 kts | 213° |
| 2026-04-24 03:19 | 42.24354 | 124.77891 | 29828 ft | 435 kts | 213° |
| 2026-04-24 03:19 | 42.21678 | 124.76048 | 30151 ft | 433 kts | 213° |
| 2026-04-24 03:19 | 42.19009 | 124.74211 | 30464 ft | 431 kts | 213° |
| 2026-04-24 03:19 | 42.16345 | 124.72379 | 30756 ft | 430 kts | 213° |
| 2026-04-24 03:20 | 42.13709 | 124.70567 | 31002 ft | 430 kts | 213° |
| 2026-04-24 03:20 | 42.11028 | 124.68724 | 31240 ft | 430 kts | 213° |
| 2026-04-24 03:20 | 42.08390 | 124.66916 | 31510 ft | 429 kts | 213° |
| 2026-04-24 03:20 | 42.05747 | 124.65107 | 31751 ft | 428 kts | 213° |
| 2026-04-24 03:21 | 42.03101 | 124.63297 | 31973 ft | 428 kts | 213° |
| 2026-04-24 03:21 | 42.00428 | 124.61469 | 32210 ft | 428 kts | 213° |
| 2026-04-24 03:21 | 41.97793 | 124.59630 | 32428 ft | 426 kts | 215° |
| 2026-04-24 03:21 | 41.95245 | 124.57688 | 32608 ft | 426 kts | 216° |
| 2026-04-24 03:22 | 41.92681 | 124.55726 | 32787 ft | 427 kts | 216° |
| 2026-04-24 03:22 | 41.90080 | 124.53741 | 32955 ft | 427 kts | 216° |
| 2026-04-24 03:22 | 41.87510 | 124.51781 | 33113 ft | 428 kts | 216° |
| 2026-04-24 03:22 | 41.84925 | 124.49812 | 33268 ft | 428 kts | 216° |
| 2026-04-24 03:23 | 41.82336 | 124.47842 | 33432 ft | 428 kts | 216° |
| 2026-04-24 03:23 | 41.79746 | 124.45872 | 33577 ft | 429 kts | 216° |
| 2026-04-24 03:23 | 41.77156 | 124.43901 | 33707 ft | 429 kts | 216° |
| 2026-04-24 03:23 | 41.74559 | 124.41927 | 33842 ft | 430 kts | 216° |
| 2026-04-24 03:24 | 41.71964 | 124.39959 | 33974 ft | 430 kts | 216° |
| 2026-04-24 03:24 | 41.66761 | 124.36016 | 34039 ft | 432 kts | 216° |
| 2026-04-24 03:25 | 41.61542 | 124.32067 | 34033 ft | 432 kts | 215° |
| 2026-04-24 03:25 | 41.56326 | 124.28127 | 34035 ft | 432 kts | 215° |
| 2026-04-24 03:26 | 41.51078 | 124.24170 | 34038 ft | 433 kts | 215° |
| 2026-04-24 03:26 | 41.45857 | 124.20242 | 34040 ft | 433 kts | 215° |
| 2026-04-24 03:27 | 41.40628 | 124.16317 | 34037 ft | 434 kts | 214° |
| 2026-04-24 03:27 | 41.35314 | 124.12437 | 34054 ft | 435 kts | 214° |
| 2026-04-24 03:28 | 41.30008 | 124.08607 | 34055 ft | 435 kts | 213° |
| 2026-04-24 03:28 | 41.24695 | 124.04771 | 34061 ft | 434 kts | 214° |
| 2026-04-24 03:29 | 41.19385 | 124.00941 | 34062 ft | 435 kts | 214° |
| 2026-04-24 03:29 | 41.14095 | 123.97129 | 34056 ft | 436 kts | 214° |
| 2026-04-24 03:30 | 41.08776 | 123.93302 | 34057 ft | 436 kts | 213° |
| 2026-04-24 03:30 | 41.03413 | 123.89451 | 34063 ft | 436 kts | 213° |
| 2026-04-24 03:31 | 40.98091 | 123.85638 | 34060 ft | 437 kts | 213° |
| 2026-04-24 03:31 | 40.92739 | 123.81812 | 34067 ft | 438 kts | 213° |
| 2026-04-24 03:32 | 40.87428 | 123.78019 | 34068 ft | 437 kts | 213° |
| 2026-04-24 03:32 | 40.82075 | 123.74194 | 34071 ft | 438 kts | 214° |
| 2026-04-24 03:33 | 40.76741 | 123.70268 | 34070 ft | 438 kts | 214° |
| 2026-04-24 03:33 | 40.71458 | 123.66373 | 34076 ft | 439 kts | 214° |
| 2026-04-24 03:34 | 40.66104 | 123.62440 | 34074 ft | 439 kts | 214° |
| 2026-04-24 03:34 | 40.60759 | 123.58529 | 34073 ft | 440 kts | 214° |
| 2026-04-24 03:35 | 40.55438 | 123.54639 | 34075 ft | 440 kts | 213° |
| 2026-04-24 03:35 | 40.50092 | 123.50733 | 34077 ft | 440 kts | 213° |
| 2026-04-24 03:36 | 40.44765 | 123.46851 | 34078 ft | 441 kts | 213° |
| 2026-04-24 03:36 | 40.39374 | 123.42927 | 34076 ft | 442 kts | 213° |
| 2026-04-24 03:37 | 40.34014 | 123.39034 | 34078 ft | 442 kts | 213° |
| 2026-04-24 03:37 | 40.28657 | 123.35150 | 34075 ft | 442 kts | 213° |
| 2026-04-24 03:38 | 40.23256 | 123.31242 | 34077 ft | 443 kts | 213° |
| 2026-04-24 03:38 | 40.17871 | 123.27352 | 34082 ft | 443 kts | 213° |
| 2026-04-24 03:39 | 40.12487 | 123.23467 | 34087 ft | 444 kts | 212° |
| 2026-04-24 03:39 | 40.07085 | 123.19578 | 34095 ft | 445 kts | 212° |
| 2026-04-24 03:40 | 40.01697 | 123.15688 | 34099 ft | 445 kts | 212° |
| 2026-04-24 03:40 | 39.96290 | 123.11746 | 34100 ft | 446 kts | 212° |
| 2026-04-24 03:41 | 39.90851 | 123.07791 | 34092 ft | 447 kts | 212° |
| 2026-04-24 03:41 | 39.85429 | 123.03857 | 34085 ft | 447 kts | 212° |
| 2026-04-24 03:42 | 39.80009 | 122.99933 | 34083 ft | 447 kts | 212° |
| 2026-04-24 03:42 | 39.74558 | 122.95993 | 34084 ft | 448 kts | 212° |
| 2026-04-24 03:43 | 39.69149 | 122.92090 | 34084 ft | 448 kts | 212° |
| 2026-04-24 03:43 | 39.63704 | 122.88168 | 34088 ft | 448 kts | 212° |
| 2026-04-24 03:44 | 39.58253 | 122.84251 | 34089 ft | 449 kts | 212° |
| 2026-04-24 03:44 | 39.52796 | 122.80336 | 34087 ft | 449 kts | 212° |
| 2026-04-24 03:45 | 39.47348 | 122.76433 | 34092 ft | 450 kts | 212° |
| 2026-04-24 03:45 | 39.41868 | 122.72514 | 34093 ft | 450 kts | 212° |
| 2026-04-24 03:46 | 39.36387 | 122.68602 | 34096 ft | 450 kts | 212° |
| 2026-04-24 03:46 | 39.30911 | 122.64702 | 34096 ft | 451 kts | 212° |
| 2026-04-24 03:47 | 39.25462 | 122.60716 | 34098 ft | 450 kts | 215° |
| 2026-04-24 03:47 | 39.20145 | 122.56461 | 34102 ft | 451 kts | 215° |
| 2026-04-24 03:48 | 39.14825 | 122.52210 | 34102 ft | 451 kts | 215° |
| 2026-04-24 03:48 | 39.09515 | 122.47972 | 34101 ft | 451 kts | 215° |
| 2026-04-24 03:49 | 39.04178 | 122.43721 | 34110 ft | 452 kts | 214° |
| 2026-04-24 03:49 | 38.98830 | 122.39469 | 34102 ft | 452 kts | 214° |
| 2026-04-24 03:50 | 38.93483 | 122.35226 | 34105 ft | 453 kts | 214° |
| 2026-04-24 03:50 | 38.88131 | 122.30985 | 34107 ft | 454 kts | 214° |
| 2026-04-24 03:51 | 38.82797 | 122.26766 | 34105 ft | 454 kts | 214° |
| 2026-04-24 03:51 | 38.77397 | 122.22493 | 34105 ft | 454 kts | 215° |
| 2026-04-24 03:52 | 38.72437 | 122.17627 | 34104 ft | 452 kts | 225° |
| 2026-04-24 03:52 | 38.68195 | 122.11738 | 34099 ft | 448 kts | 234° |
| 2026-04-24 03:53 | 38.64838 | 122.05078 | 34093 ft | 446 kts | 244° |
| 2026-04-24 03:53 | 38.62032 | 121.98011 | 34097 ft | 447 kts | 245° |
| 2026-04-24 03:54 | 38.59259 | 121.90955 | 34097 ft | 447 kts | 245° |
| 2026-04-24 03:54 | 38.56453 | 121.83852 | 34095 ft | 446 kts | 245° |
| 2026-04-24 03:55 | 38.53659 | 121.76810 | 34098 ft | 447 kts | 245° |
| 2026-04-24 03:55 | 38.50843 | 121.69733 | 34101 ft | 447 kts | 245° |
| 2026-04-24 03:56 | 38.48042 | 121.62707 | 34099 ft | 447 kts | 245° |
| 2026-04-24 03:56 | 38.45188 | 121.55670 | 34096 ft | 448 kts | 243° |
| 2026-04-24 03:57 | 38.41726 | 121.49118 | 34097 ft | 450 kts | 234° |
| 2026-04-24 03:57 | 38.37434 | 121.43239 | 34095 ft | 454 kts | 225° |
| 2026-04-24 03:58 | 38.32470 | 121.38281 | 34100 ft | 456 kts | 217° |
| 2026-04-24 03:58 | 38.27246 | 121.33768 | 34100 ft | 456 kts | 216° |
| 2026-04-24 03:59 | 38.22001 | 121.29264 | 34094 ft | 457 kts | 216° |
| 2026-04-24 03:59 | 38.16736 | 121.24764 | 34100 ft | 457 kts | 216° |
| 2026-04-24 04:00 | 38.11457 | 121.20252 | 34097 ft | 456 kts | 216° |
| 2026-04-24 04:00 | 38.06194 | 121.15761 | 34093 ft | 457 kts | 216° |
| 2026-04-24 04:01 | 38.00929 | 121.11274 | 34097 ft | 457 kts | 216° |
| 2026-04-24 04:01 | 37.95649 | 121.06782 | 34085 ft | 458 kts | 216° |
| 2026-04-24 04:02 | 37.90363 | 121.02294 | 34087 ft | 458 kts | 216° |
| 2026-04-24 04:02 | 37.85067 | 120.97805 | 34082 ft | 458 kts | 216° |
| 2026-04-24 04:03 | 37.79782 | 120.93334 | 34088 ft | 459 kts | 216° |
| 2026-04-24 04:03 | 37.74489 | 120.88862 | 34081 ft | 459 kts | 216° |
| 2026-04-24 04:04 | 37.69183 | 120.84388 | 34088 ft | 459 kts | 216° |
| 2026-04-24 04:04 | 37.63796 | 120.80104 | 34091 ft | 461 kts | 211° |
| 2026-04-24 04:05 | 37.57977 | 120.76701 | 34095 ft | 462 kts | 202° |
| 2026-04-24 04:05 | 37.51846 | 120.74364 | 34099 ft | 464 kts | 194° |
| 2026-04-24 04:06 | 37.45446 | 120.72988 | 34097 ft | 466 kts | 190° |
| 2026-04-24 04:06 | 37.39046 | 120.71801 | 34103 ft | 466 kts | 190° |
| 2026-04-24 04:07 | 37.32632 | 120.70602 | 34101 ft | 466 kts | 190° |
| 2026-04-24 04:07 | 37.26214 | 120.69398 | 34105 ft | 466 kts | 190° |
| 2026-04-24 04:08 | 37.19823 | 120.68201 | 34111 ft | 466 kts | 190° |
| 2026-04-24 04:08 | 37.13423 | 120.67001 | 34102 ft | 466 kts | 190° |
| 2026-04-24 04:09 | 37.07039 | 120.65807 | 34103 ft | 466 kts | 190° |
| 2026-04-24 04:09 | 37.00618 | 120.64607 | 34103 ft | 467 kts | 190° |
| 2026-04-24 04:10 | 36.94217 | 120.63241 | 34099 ft | 466 kts | 194° |
| 2026-04-24 04:10 | 36.87993 | 120.61076 | 34111 ft | 463 kts | 200° |
| 2026-04-24 04:11 | 36.78856 | 120.57162 | 34115 ft | 463 kts | 200° |
| 2026-04-24 04:11 | 36.72767 | 120.54566 | 34115 ft | 464 kts | 200° |
| 2026-04-24 04:12 | 36.66657 | 120.51967 | 34118 ft | 464 kts | 200° |
| 2026-04-24 04:12 | 36.60549 | 120.49375 | 34120 ft | 464 kts | 200° |
| 2026-04-24 04:13 | 36.54458 | 120.46858 | 34123 ft | 464 kts | 199° |
| 2026-04-24 04:13 | 36.48307 | 120.44505 | 34122 ft | 463 kts | 199° |
| 2026-04-24 04:14 | 36.42132 | 120.42143 | 34119 ft | 462 kts | 199° |
| 2026-04-24 04:14 | 36.36028 | 120.39793 | 34133 ft | 462 kts | 199° |
| 2026-04-24 04:15 | 36.29858 | 120.37450 | 34135 ft | 462 kts | 198° |
| 2026-04-24 04:15 | 36.23613 | 120.35667 | 34136 ft | 463 kts | 194° |
| 2026-04-24 04:16 | 36.17287 | 120.34031 | 34140 ft | 464 kts | 193° |
| 2026-04-24 04:16 | 36.10999 | 120.32409 | 34136 ft | 464 kts | 193° |
| 2026-04-24 04:17 | 36.04666 | 120.30759 | 34125 ft | 463 kts | 194° |
| 2026-04-24 04:17 | 35.98505 | 120.28572 | 34130 ft | 461 kts | 201° |
| 2026-04-24 04:18 | 35.92604 | 120.25572 | 34118 ft | 459 kts | 207° |
| 2026-04-24 04:18 | 35.86964 | 120.21959 | 34125 ft | 458 kts | 210° |
| 2026-04-24 04:19 | 35.81332 | 120.18287 | 34145 ft | 458 kts | 210° |
| 2026-04-24 04:19 | 35.75717 | 120.14636 | 34123 ft | 458 kts | 210° |
| 2026-04-24 04:20 | 35.70078 | 120.10977 | 34123 ft | 457 kts | 210° |
| 2026-04-24 04:20 | 35.64466 | 120.07340 | 34139 ft | 457 kts | 210° |
| 2026-04-24 04:21 | 35.58854 | 120.03711 | 34130 ft | 456 kts | 210° |
| 2026-04-24 04:21 | 35.53263 | 120.00103 | 34140 ft | 455 kts | 211° |
| 2026-04-24 04:22 | 35.47643 | 119.96482 | 34144 ft | 454 kts | 211° |
| 2026-04-24 04:22 | 35.42052 | 119.92882 | 34133 ft | 454 kts | 211° |
| 2026-04-24 04:23 | 35.36469 | 119.89292 | 34141 ft | 453 kts | 211° |
| 2026-04-24 04:23 | 35.30902 | 119.85719 | 34153 ft | 453 kts | 211° |
| 2026-04-24 04:24 | 35.25321 | 119.82146 | 34132 ft | 453 kts | 211° |
| 2026-04-24 04:24 | 35.19769 | 119.78596 | 34137 ft | 453 kts | 211° |
| 2026-04-24 04:25 | 35.14213 | 119.75048 | 34142 ft | 453 kts | 211° |
| 2026-04-24 04:25 | 35.08615 | 119.71481 | 34122 ft | 452 kts | 212° |
| 2026-04-24 04:26 | 35.03070 | 119.67953 | 34153 ft | 451 kts | 212° |
| 2026-04-24 04:26 | 34.97485 | 119.64401 | 34150 ft | 451 kts | 212° |
| 2026-04-24 04:27 | 34.91955 | 119.60892 | 34141 ft | 450 kts | 212° |
| 2026-04-24 04:27 | 34.86423 | 119.57385 | 34151 ft | 449 kts | 212° |
| 2026-04-24 04:28 | 34.80891 | 119.53885 | 34148 ft | 449 kts | 212° |
| 2026-04-24 04:28 | 34.75322 | 119.50369 | 34143 ft | 448 kts | 212° |
| 2026-04-24 04:29 | 34.69832 | 119.46905 | 34146 ft | 448 kts | 212° |
| 2026-04-24 04:29 | 34.64320 | 119.43433 | 34156 ft | 447 kts | 212° |
| 2026-04-24 04:30 | 34.58794 | 119.39959 | 34144 ft | 446 kts | 212° |
| 2026-04-24 04:30 | 34.53297 | 119.36508 | 34148 ft | 445 kts | 213° |
| 2026-04-24 04:31 | 34.47800 | 119.33061 | 34155 ft | 445 kts | 212° |
| 2026-04-24 04:31 | 34.42305 | 119.29622 | 34145 ft | 445 kts | 212° |
| 2026-04-24 04:32 | 34.36805 | 119.26183 | 34154 ft | 444 kts | 212° |
| 2026-04-24 04:32 | 34.31345 | 119.22776 | 34151 ft | 443 kts | 212° |
| 2026-04-24 04:33 | 34.25894 | 119.19379 | 34161 ft | 443 kts | 212° |
| 2026-04-24 04:33 | 34.20399 | 119.15959 | 34155 ft | 443 kts | 213° |
| 2026-04-24 04:34 | 34.14951 | 119.12572 | 34162 ft | 441 kts | 212° |
| 2026-04-24 04:34 | 34.09484 | 119.09180 | 34157 ft | 441 kts | 213° |
| 2026-04-24 04:35 | 34.04052 | 119.05814 | 34166 ft | 441 kts | 213° |
| 2026-04-24 04:35 | 33.98605 | 119.02446 | 34168 ft | 439 kts | 213° |
| 2026-04-24 04:36 | 33.93162 | 118.99079 | 34171 ft | 439 kts | 213° |
| 2026-04-24 04:36 | 33.87747 | 118.95741 | 34170 ft | 437 kts | 213° |
| 2026-04-24 04:37 | 33.82347 | 118.92413 | 34171 ft | 437 kts | 213° |
| 2026-04-24 04:37 | 33.76942 | 118.89090 | 34170 ft | 436 kts | 213° |
| 2026-04-24 04:38 | 33.71522 | 118.85757 | 34171 ft | 436 kts | 213° |
| 2026-04-24 04:38 | 33.66139 | 118.82454 | 34167 ft | 435 kts | 213° |
| 2026-04-24 04:39 | 33.60733 | 118.79142 | 34170 ft | 434 kts | 214° |
| 2026-04-24 04:39 | 33.55398 | 118.75878 | 34170 ft | 432 kts | 213° |
| 2026-04-24 04:40 | 33.49871 | 118.72958 | 34169 ft | 438 kts | 208° |
| 2026-04-24 04:40 | 33.44040 | 118.70720 | 34166 ft | 442 kts | 203° |
| 2026-04-24 04:41 | 33.37981 | 118.69209 | 34164 ft | 448 kts | 197° |
| 2026-04-24 04:41 | 33.31755 | 118.68195 | 34165 ft | 449 kts | 197° |
| 2026-04-24 04:42 | 33.25566 | 118.67197 | 34163 ft | 448 kts | 196° |
| 2026-04-24 04:42 | 33.19420 | 118.66215 | 34162 ft | 448 kts | 197° |
| 2026-04-24 04:43 | 33.13237 | 118.65216 | 34163 ft | 448 kts | 197° |
| 2026-04-24 04:43 | 33.07083 | 118.64226 | 34162 ft | 447 kts | 197° |
| 2026-04-24 04:44 | 33.00905 | 118.63231 | 34161 ft | 447 kts | 197° |
| 2026-04-24 04:44 | 32.94733 | 118.62239 | 34155 ft | 445 kts | 197° |
| 2026-04-24 04:45 | 32.88643 | 118.61261 | 34160 ft | 444 kts | 198° |
| 2026-04-24 04:45 | 32.82566 | 118.60285 | 34161 ft | 445 kts | 198° |
| 2026-04-24 04:46 | 32.76450 | 118.59306 | 34158 ft | 444 kts | 198° |
| 2026-04-24 04:46 | 32.70299 | 118.58322 | 34155 ft | 445 kts | 198° |
| 2026-04-24 04:47 | 32.64231 | 118.57040 | 34157 ft | 438 kts | 202° |
| 2026-04-24 04:47 | 32.58270 | 118.55536 | 34164 ft | 441 kts | 200° |
| 2026-04-24 04:48 | 32.52125 | 118.54673 | 34168 ft | 448 kts | 193° |
| 2026-04-24 04:48 | 32.45823 | 118.54700 | 34159 ft | 460 kts | 186° |
| 2026-04-24 04:49 | 32.39404 | 118.55689 | 34152 ft | 468 kts | 179° |
| 2026-04-24 04:49 | 32.32999 | 118.57127 | 33919 ft | 469 kts | 179° |
| 2026-04-24 04:50 | 32.29772 | 118.57855 | 33668 ft | 466 kts | 179° |
| 2026-04-24 04:50 | 32.26592 | 118.58569 | 33415 ft | 464 kts | 179° |
| 2026-04-24 04:50 | 32.23423 | 118.59276 | 33165 ft | 463 kts | 179° |
| 2026-04-24 04:50 | 32.20275 | 118.59976 | 32903 ft | 461 kts | 179° |
| 2026-04-24 04:51 | 32.17127 | 118.60677 | 32644 ft | 460 kts | 179° |
| 2026-04-24 04:51 | 32.13995 | 118.61372 | 32389 ft | 461 kts | 179° |
| 2026-04-24 04:51 | 32.10835 | 118.62071 | 32137 ft | 462 kts | 179° |
| 2026-04-24 04:51 | 32.07656 | 118.62772 | 31885 ft | 462 kts | 179° |
| 2026-04-24 04:52 | 32.04520 | 118.63447 | 31626 ft | 460 kts | 182° |
| 2026-04-24 04:52 | 32.01368 | 118.63590 | 31365 ft | 444 kts | 194° |
| 2026-04-24 04:52 | 31.98388 | 118.62991 | 31110 ft | 430 kts | 205° |
| 2026-04-24 04:52 | 31.95644 | 118.61758 | 30858 ft | 418 kts | 216° |
| 2026-04-24 04:53 | 31.93190 | 118.59976 | 30599 ft | 406 kts | 225° |
| 2026-04-24 04:53 | 31.91130 | 118.57787 | 30348 ft | 398 kts | 234° |
| 2026-04-24 04:53 | 31.89443 | 118.55233 | 30099 ft | 393 kts | 243° |
| 2026-04-24 04:53 | 31.88167 | 118.52428 | 29840 ft | 389 kts | 250° |
| 2026-04-24 04:54 | 31.87032 | 118.49552 | 29590 ft | 390 kts | 250° |
| 2026-04-24 04:54 | 31.85896 | 118.46642 | 29332 ft | 391 kts | 250° |
| 2026-04-24 04:54 | 31.84770 | 118.43750 | 28789 ft | 394 kts | 250° |
| 2026-04-24 04:54 | 31.83627 | 118.40797 | 27941 ft | 397 kts | 250° |
| 2026-04-24 04:55 | 31.82499 | 118.37882 | 26917 ft | 402 kts | 250° |
| 2026-04-24 04:55 | 31.81343 | 118.34885 | 25628 ft | 412 kts | 249° |
| 2026-04-24 04:55 | 31.80150 | 118.31794 | 24377 ft | 420 kts | 248° |
| 2026-04-24 04:55 | 31.78938 | 118.28674 | 23182 ft | 426 kts | 248° |
| 2026-04-24 04:56 | 31.77703 | 118.25514 | 22321 ft | 425 kts | 248° |
| 2026-04-24 04:56 | 31.76468 | 118.22367 | 21426 ft | 424 kts | 248° |
| 2026-04-24 04:56 | 31.75240 | 118.19237 | 20519 ft | 424 kts | 248° |
| 2026-04-24 04:56 | 31.74024 | 118.16137 | 19680 ft | 423 kts | 248° |
| 2026-04-24 04:57 | 31.72859 | 118.13000 | 18910 ft | 419 kts | 250° |
| 2026-04-24 04:57 | 31.71862 | 118.09827 | 18184 ft | 414 kts | 253° |
| 2026-04-24 04:57 | 31.71031 | 118.06610 | 17460 ft | 410 kts | 257° |
| 2026-04-24 04:57 | 31.70348 | 118.03408 | 16732 ft | 408 kts | 258° |
| 2026-04-24 04:58 | 31.69683 | 118.00184 | 15965 ft | 407 kts | 258° |
| 2026-04-24 04:58 | 31.69019 | 117.96950 | 15202 ft | 407 kts | 258° |
| 2026-04-24 04:58 | 31.68363 | 117.93765 | 14455 ft | 406 kts | 258° |
| 2026-04-24 04:58 | 31.67700 | 117.90544 | 13704 ft | 404 kts | 258° |
| 2026-04-24 04:59 | 31.67046 | 117.87375 | 12970 ft | 403 kts | 258° |
| 2026-04-24 04:59 | 31.66390 | 117.84204 | 12406 ft | 396 kts | 258° |
| 2026-04-24 04:59 | 31.65749 | 117.81111 | 11916 ft | 387 kts | 258° |
| 2026-04-24 04:59 | 31.65122 | 117.78090 | 11482 ft | 378 kts | 258° |
| 2026-04-24 05:00 | 31.64506 | 117.75128 | 11176 ft | 365 kts | 258° |
| 2026-04-24 05:00 | 31.63921 | 117.72316 | 10926 ft | 353 kts | 258° |
| 2026-04-24 05:00 | 31.63348 | 117.69562 | 10694 ft | 341 kts | 258° |
| 2026-04-24 05:00 | 31.62799 | 117.66932 | 10491 ft | 329 kts | 258° |
| 2026-04-24 05:01 | 31.62265 | 117.64377 | 10309 ft | 317 kts | 258° |
| 2026-04-24 05:01 | 31.61750 | 117.61914 | 10149 ft | 306 kts | 258° |
| 2026-04-24 05:01 | 31.61252 | 117.59508 | 10007 ft | 295 kts | 259° |
| 2026-04-24 05:01 | 31.61093 | 117.57182 | 9711 ft | 289 kts | 277° |
| 2026-04-24 05:02 | 31.61518 | 117.54895 | 9342 ft | 285 kts | 290° |
| 2026-04-24 05:02 | 31.62164 | 117.52699 | 8987 ft | 284 kts | 291° |
| 2026-04-24 05:02 | 31.62822 | 117.50536 | 8638 ft | 283 kts | 291° |
| 2026-04-24 05:02 | 31.63473 | 117.48354 | 8262 ft | 283 kts | 291° |
| 2026-04-24 05:03 | 31.64110 | 117.46183 | 7920 ft | 282 kts | 290° |
| 2026-04-24 05:03 | 31.64731 | 117.44040 | 7729 ft | 275 kts | 290° |
| 2026-04-24 05:03 | 31.65331 | 117.41955 | 7505 ft | 269 kts | 290° |
| 2026-04-24 05:03 | 31.65926 | 117.39880 | 7251 ft | 265 kts | 290° |
| 2026-04-24 05:04 | 31.66503 | 117.37865 | 7005 ft | 261 kts | 290° |
| 2026-04-24 05:04 | 31.67075 | 117.35867 | 6765 ft | 257 kts | 290° |
| 2026-04-24 05:04 | 31.67641 | 117.33889 | 6527 ft | 253 kts | 289° |
| 2026-04-24 05:04 | 31.68198 | 117.31939 | 6295 ft | 249 kts | 289° |
| 2026-04-24 05:05 | 31.68747 | 117.30018 | 5997 ft | 249 kts | 289° |
| 2026-04-24 05:05 | 31.69294 | 117.28112 | 5746 ft | 246 kts | 289° |
| 2026-04-24 05:05 | 31.69838 | 117.26212 | 5430 ft | 246 kts | 289° |
| 2026-04-24 05:05 | 31.70381 | 117.24316 | 5173 ft | 244 kts | 289° |
| 2026-04-24 05:06 | 31.70924 | 117.22420 | 4847 ft | 245 kts | 289° |
| 2026-04-24 05:06 | 31.71458 | 117.20553 | 4621 ft | 241 kts | 289° |
| 2026-04-24 05:06 | 31.71989 | 117.18694 | 4389 ft | 238 kts | 289° |
| 2026-04-24 05:06 | 31.72522 | 117.16847 | 4012 ft | 241 kts | 292° |
| 2026-04-24 05:07 | 31.73396 | 117.15202 | 3761 ft | 235 kts | 314° |
| 2026-04-24 05:07 | 31.74629 | 117.13975 | 3421 ft | 235 kts | 328° |
| 2026-04-24 05:07 | 31.76025 | 117.13006 | 3282 ft | 225 kts | 333° |
| 2026-04-24 05:07 | 31.77364 | 117.12155 | 3163 ft | 216 kts | 333° |
| 2026-04-24 05:08 | 31.78667 | 117.11320 | 3026 ft | 208 kts | 333° |
| 2026-04-24 05:08 | 31.79924 | 117.10493 | 2971 ft | 206 kts | 332° |
| 2026-04-24 05:08 | 31.81167 | 117.09659 | 2965 ft | 207 kts | 332° |
| 2026-04-24 05:08 | 31.82409 | 117.08816 | 2963 ft | 207 kts | 332° |
| 2026-04-24 05:09 | 31.83660 | 117.07963 | 3027 ft | 200 kts | 331° |
| 2026-04-24 05:09 | 31.84806 | 117.07179 | 2988 ft | 184 kts | 331° |
| 2026-04-24 05:09 | 31.85873 | 117.06451 | 2773 ft | 170 kts | 332° |
| 2026-04-24 05:09 | 31.86865 | 117.05776 | 2536 ft | 160 kts | 332° |
| 2026-04-24 05:10 | 31.87821 | 117.05127 | 2351 ft | 159 kts | 332° |
| 2026-04-24 05:10 | 31.88773 | 117.04481 | 2146 ft | 151 kts | 332° |
| 2026-04-24 05:10 | 31.89664 | 117.03875 | 1937 ft | 146 kts | 332° |
| 2026-04-24 05:10 | 31.90542 | 117.03280 | 1750 ft | 146 kts | 332° |
| 2026-04-24 05:11 | 31.91421 | 117.02685 | 1567 ft | 146 kts | 332° |
| 2026-04-24 05:11 | 31.92291 | 117.02096 | 1386 ft | 145 kts | 332° |
| 2026-04-24 05:11 | 31.93176 | 117.01496 | 1190 ft | 145 kts | 332° |
| 2026-04-24 05:11 | 31.94047 | 117.00905 | 1002 ft | 144 kts | 332° |
| 2026-04-24 05:12 | 31.94911 | 117.00320 | 812 ft | 143 kts | 332° |
| 2026-04-24 05:12 | 31.95781 | 116.99734 | 617 ft | 143 kts | 332° |
| 2026-04-24 05:12 | 31.96650 | 116.99152 | 441 ft | 143 kts | 332° |
| 2026-04-24 05:12 | 31.97508 | 116.98562 | 253 ft | 142 kts | 332° |
| 2026-04-24 05:13 | 31.98857 | 116.97647 | 216 ft | 70 kts | 330° |
| 2026-04-24 05:13 | 31.99177 | 116.97424 | 216 ft | 28 kts | 322° |
| 2026-04-24 05:13 | 31.99303 | 116.97250 | 216 ft | 26 kts | 303° |
| 2026-04-24 05:14 | 31.99328 | 116.97204 | 216 ft | 0 kts | 302° |
| 2026-04-24 05:14 | 31.99336 | 116.97189 | 216 ft | 4 kts | 302° |
| 2026-04-24 05:14 | 31.99342 | 116.97144 | 216 ft | 7 kts | 248° |
| 2026-04-24 05:15 | 31.99291 | 116.97102 | 216 ft | 10 kts | 217° |
| 2026-04-24 05:15 | 31.99243 | 116.97021 | 216 ft | 13 kts | 239° |
| 2026-04-24 05:15 | 31.99206 | 116.96909 | 216 ft | 15 kts | 261° |
| 2026-04-24 05:15 | 31.99179 | 116.96835 | 216 ft | 10 kts | 210° |
| 2026-04-24 05:16 | 31.99128 | 116.96821 | 216 ft | 6 kts | 187° |
| 2026-04-24 05:16 | 31.99090 | 116.96813 | 216 ft | 5 kts | 189° |
| 2026-04-24 05:16 | 31.99063 | 116.96809 | 216 ft | 1 kts | 189° |
| 2026-04-24 05:16 | 31.99050 | 116.96806 | 216 ft | 1 kts | 190° |
| 2026-04-24 05:17 | 31.99047 | 116.96806 | 216 ft | 0 kts | 189° |